Maytown, Pennsylvania
Current Conditions -  °F | °C
As of 12:56 AM on Wednesday 26 Nov 2014 (Local Time) from KMDT Reporting Station
Overcast Overcast  
Wind Chill: 36°   Ceiling: 16000
Heat Index: 40°   Visibility: 10mi
Dew Point: 34°   Wind: 6mph
Humidity: 79%   Direction: 340°NNW
Pressure: 30.17"   Gusts: NA
Location:  40.08°N, 76.58°W
Report Text: KMDT 260556Z 34005KT 10SM OVC160 04/01 A3017 RMK AO2 SLP217 T00440011 10056 20022 50013
Loading
Personal Weather Stations






























Interactive Weather Map New forecast layout! Learn more

10-Day Weather Forecast

Advertisements
Track Severe Weather on mobile